Central Valley, Nevada
Current Conditions -  °F | °C
As of 1:15 PM on Saturday 20 Dec 2014 (Local Time) from KMEV Reporting Station
Overcast Overcast  
Wind Chill: 50°   Ceiling: 5000
Heat Index: 50°   Visibility: 10mi
Dew Point: 32°   Wind: 7mph
Humidity: 50%   Direction: 270°W
Pressure: 30.09"   Gusts: NA
Location:  38.9511°N, 119.329°W
Report Text: KMEV 202115Z AUTO 27006KT 10SM OVC050 10/00 A3009 RMK AO2
Loading
Personal Weather Stations






























Interactive Weather Map New forecast layout! Learn more

10-Day Weather Forecast

Advertisements
Track Severe Weather on mobile